Time;durP1;ratioP1;P1;durP2;ratioP2;P2;SDS_P1;SDS_P2;PMS_P1;PMS_P2;Temp;Humidity;BMP_temperature;BMP_pressure;BME280_temperature;BME280_humidity;BME280_pressure;Samples;Min_cycle;Max_cycle;Signal;HPM_P1;HPM_P2
2022/05/24 00:00:42;;;;;;;4.43;3.83;;;14.80;99.90;;;;;;5013471;28;20221;-64
2022/05/24 00:03:09;;;;;;;10.70;7.53;;;14.90;99.90;;;;;;5013829;28;20204;-63
2022/05/24 00:05:38;;;;;;;7.93;5.97;;;14.80;99.90;;;;;;5013510;28;20554;-63
2022/05/24 00:08:07;;;;;;;2.07;1.73;;;14.80;99.90;;;;;;5013503;28;20236;-63
2022/05/24 00:10:35;;;;;;;4.73;2.50;;;14.80;99.90;;;;;;5013670;28;20243;-63
2022/05/24 00:13:02;;;;;;;6.80;4.17;;;14.80;99.90;;;;;;5013611;28;20204;-64
2022/05/24 00:15:31;;;;;;;5.47;4.43;;;14.80;99.90;;;;;;5013650;28;20236;-64
2022/05/24 00:18:00;;;;;;;8.67;6.83;;;14.80;99.90;;;;;;5014013;28;20197;-64
2022/05/24 00:20:30;;;;;;;5.10;4.57;;;14.80;99.90;;;;;;5014176;28;20220;-63
2022/05/24 00:22:59;;;;;;;5.40;3.73;;;14.80;99.90;;;;;;5013582;28;20224;-63
2022/05/24 00:25:27;;;;;;;7.47;4.03;;;14.90;99.90;;;;;;5013404;28;20228;-64
2022/05/24 00:27:56;;;;;;;7.83;6.00;;;14.90;99.90;;;;;;5013091;28;20654;-64
2022/05/24 00:30:23;;;;;;;8.87;6.70;;;14.90;99.90;;;;;;5013394;28;20197;-63
2022/05/24 00:32:50;;;;;;;5.27;4.20;;;14.90;99.90;;;;;;5013474;28;20224;-63
2022/05/24 00:35:17;;;;;;;4.03;3.63;;;14.90;99.90;;;;;;5013055;28;20247;-63
2022/05/24 00:37:46;;;;;;;7.17;6.10;;;14.90;99.90;;;;;;5013220;28;20200;-64
2022/05/24 00:40:35;;;;;;;5.10;3.20;;;14.80;99.90;;;;;;5013147;28;20225;-63
2022/05/24 00:43:08;;;;;;;1.93;1.83;;;14.80;99.90;;;;;;5012916;28;20189;-64
2022/05/24 00:45:40;;;;;;;4.33;3.93;;;14.80;99.90;;;;;;5013311;28;20189;-64
2022/05/24 00:48:13;;;;;;;3.00;2.63;;;14.70;99.90;;;;;;5013165;28;20208;-63
2022/05/24 00:50:45;;;;;;;4.90;3.80;;;14.70;99.90;;;;;;5013144;28;20180;-64
2022/05/24 00:53:19;;;;;;;5.97;5.33;;;14.70;99.90;;;;;;5013174;28;20589;-64
2022/05/24 00:55:51;;;;;;;5.20;4.20;;;14.70;99.90;;;;;;5013018;28;20255;-64
2022/05/24 00:58:25;;;;;;;4.20;3.67;;;14.70;99.90;;;;;;5012989;28;20205;-63
2022/05/24 01:00:53;;;;;;;5.77;5.00;;;14.80;99.90;;;;;;5012939;28;20208;-63
2022/05/24 01:03:20;;;;;;;6.33;4.53;;;14.60;99.90;;;;;;5012952;28;20209;-63
2022/05/24 01:05:47;;;;;;;4.80;3.87;;;14.50;99.90;;;;;;5012703;28;20201;-63
2022/05/24 01:08:14;;;;;;;7.30;3.60;;;14.50;99.90;;;;;;5012651;28;20290;-63
2022/05/24 01:10:48;;;;;;;5.50;3.53;;;14.40;99.90;;;;;;5012890;28;20219;-63
2022/05/24 01:13:19;;;;;;;5.47;2.93;;;14.40;99.90;;;;;;5012881;28;20534;-63
2022/05/24 01:15:47;;;;;;;2.73;2.53;;;14.40;99.90;;;;;;5012898;28;20181;-63
2022/05/24 01:18:15;;;;;;;6.60;3.87;;;14.30;99.90;;;;;;5014743;28;20263;-63
2022/05/24 01:20:45;;;;;;;3.20;2.90;;;14.30;99.90;;;;;;5016754;28;20217;-63
2022/05/24 01:23:38;;;;;;;1.97;1.27;;;14.20;99.90;;;;;;5016817;28;20574;-63
2022/05/24 01:26:12;;;;;;;3.20;1.83;;;14.10;99.90;;;;;;5016763;28;20182;-63
2022/05/24 01:28:43;;;;;;;2.57;2.37;;;14.10;99.90;;;;;;5016777;28;20184;-63
2022/05/24 01:31:11;;;;;;;3.83;3.53;;;14.10;99.90;;;;;;5016756;28;20208;-63
2022/05/24 01:36:26;;;;;;;4.70;3.23;;;14.10;99.90;;;;;;5016595;28;20264;-63
2022/05/24 01:38:58;;;;;;;3.70;3.40;;;14.00;99.90;;;;;;5017813;28;20177;-63
2022/05/24 01:41:30;;;;;;;6.50;3.17;;;13.90;99.90;;;;;;5016528;28;20209;-63
2022/05/24 01:43:59;;;;;;;3.50;2.83;;;13.90;99.90;;;;;;5016576;28;20546;-63
2022/05/24 01:46:32;;;;;;;5.63;1.80;;;14.00;99.90;;;;;;5016359;28;20200;-63
2022/05/24 01:49:05;;;;;;;1.80;1.67;;;13.90;99.90;;;;;;5016401;28;20185;-63
2022/05/24 01:51:37;;;;;;;3.47;2.63;;;14.00;99.90;;;;;;5016324;28;20264;-63
2022/05/24 01:54:07;;;;;;;3.70;2.97;;;13.90;99.90;;;;;;5016268;28;20181;-64
2022/05/24 01:56:40;;;;;;;4.33;2.10;;;13.90;99.90;;;;;;5016145;28;20212;-63
2022/05/24 01:59:10;;;;;;;3.93;3.40;;;13.90;99.90;;;;;;5015960;28;20623;-63
2022/05/24 02:01:47;;;;;;;1.90;1.70;;;13.90;99.90;;;;;;5015950;28;20209;-63
2022/05/24 02:04:15;;;;;;;5.93;2.80;;;13.90;99.90;;;;;;5016461;28;20186;-63
2022/05/24 02:06:42;;;;;;;4.93;2.43;;;13.80;99.90;;;;;;5015595;28;20192;-63
2022/05/24 02:09:10;;;;;;;7.10;3.27;;;13.70;99.90;;;;;;5015692;28;20626;-63
2022/05/24 02:11:37;;;;;;;1.47;1.37;;;13.70;99.90;;;;;;5015895;28;20197;-63
2022/05/24 02:14:12;;;;;;;4.13;2.80;;;13.70;99.90;;;;;;5015899;28;20212;-63
2022/05/24 02:16:44;;;;;;;2.83;2.23;;;13.60;99.90;;;;;;5015947;28;20684;-63
2022/05/24 02:19:14;;;;;;;1.73;1.57;;;13.60;99.90;;;;;;5015376;28;20205;-63
2022/05/24 02:21:44;;;;;;;3.47;1.60;;;13.60;99.90;;;;;;5015354;28;20267;-63
2022/05/24 02:24:20;;;;;;;1.27;1.17;;;13.50;99.90;;;;;;5015662;28;20201;-63
2022/05/24 02:26:47;;;;;;;1.63;1.53;;;13.60;99.90;;;;;;5015667;28;20196;-63
2022/05/24 02:29:16;;;;;;;2.27;2.10;;;13.50;99.90;;;;;;5015244;28;20258;-63
2022/05/24 02:31:44;;;;;;;1.30;1.20;;;13.50;99.90;;;;;;5015562;28;20650;-63
2022/05/24 02:34:13;;;;;;;2.90;2.30;;;13.40;99.90;;;;;;5015490;28;20212;-62
2022/05/24 02:36:40;;;;;;;2.00;1.40;;;13.40;99.90;;;;;;5014716;28;20634;-63
2022/05/24 02:39:07;;;;;;;1.37;1.27;;;13.50;99.90;;;;;;5015356;28;20588;-63
2022/05/24 02:41:33;;;;;;;2.03;1.87;;;13.50;99.90;;;;;;5015257;28;20228;-63
2022/05/24 02:44:04;;;;;;;1.50;1.40;;;13.40;99.90;;;;;;5015297;28;20197;-64
2022/05/24 02:46:33;;;;;;;3.37;1.50;;;13.30;99.90;;;;;;5014997;28;20209;-63
2022/05/24 02:49:00;;;;;;;2.67;1.60;;;13.30;99.90;;;;;;5014921;28;20223;-63
2022/05/24 02:51:28;;;;;;;0.93;0.93;;;13.30;99.90;;;;;;5015128;28;20193;-63
2022/05/24 02:53:54;;;;;;;0.77;0.77;;;13.40;99.90;;;;;;5015160;28;20205;-63
2022/05/24 02:56:22;;;;;;;1.10;1.10;;;13.30;99.90;;;;;;5015076;28;20223;-64
2022/05/24 02:58:49;;;;;;;1.00;0.90;;;13.30;99.90;;;;;;5015114;28;20263;-63
2022/05/24 03:01:19;;;;;;;1.60;1.13;;;13.30;99.90;;;;;;5015025;28;20263;-63
2022/05/24 03:03:49;;;;;;;2.27;0.90;;;13.30;99.90;;;;;;5015049;28;20201;-62
2022/05/24 03:06:17;;;;;;;0.97;0.87;;;13.20;99.90;;;;;;5014742;28;20199;-63
2022/05/24 03:14:14;;;;;;;2.53;1.53;;;13.20;99.90;;;;;;5014973;28;20181;-63
2022/05/24 03:14:15;;;;;;;1.47;1.37;;;13.10;99.90;;;;;;5016370;28;20555;-63
2022/05/24 03:16:46;;;;;;;2.20;1.57;;;13.00;99.90;;;;;;5014720;28;20197;-63
2022/05/24 03:19:15;;;;;;;0.43;0.33;;;13.10;99.90;;;;;;5014778;28;20185;-63
2022/05/24 03:21:43;;;;;;;2.93;2.33;;;13.10;99.90;;;;;;5014511;28;20216;-63
2022/05/24 03:24:10;;;;;;;2.43;1.87;;;13.00;99.90;;;;;;5014633;28;20207;-63
2022/05/24 03:26:37;;;;;;;0.87;0.83;;;13.10;99.90;;;;;;5014804;28;20586;-63
2022/05/24 03:29:05;;;;;;;0.50;0.50;;;13.10;99.90;;;;;;5014519;28;20232;-63
2022/05/24 03:31:32;;;;;;;1.37;1.27;;;13.10;99.90;;;;;;5014602;28;20572;-63
2022/05/24 03:34:00;;;;;;;1.33;1.10;;;13.10;99.90;;;;;;5014470;28;20200;-63
2022/05/24 03:36:28;;;;;;;1.47;0.70;;;13.00;99.90;;;;;;5014021;28;20220;-63
2022/05/24 03:38:55;;;;;;;1.70;1.23;;;13.00;99.90;;;;;;5014347;28;20216;-63
2022/05/24 03:41:22;;;;;;;2.43;2.03;;;13.00;99.90;;;;;;5013681;28;20236;-63
2022/05/24 03:43:49;;;;;;;0.77;0.63;;;13.00;99.90;;;;;;5014267;28;20197;-63
2022/05/24 03:46:16;;;;;;;2.20;0.90;;;13.00;99.90;;;;;;5014231;28;20207;-63
2022/05/24 03:48:43;;;;;;;1.27;1.20;;;13.00;99.90;;;;;;5014077;28;20200;-63
2022/05/24 03:51:10;;;;;;;1.47;1.37;;;13.00;99.90;;;;;;5014211;28;20208;-63
2022/05/24 03:53:38;;;;;;;3.63;1.43;;;13.00;99.90;;;;;;5013854;28;20674;-63
2022/05/24 03:56:05;;;;;;;1.70;1.50;;;13.10;99.90;;;;;;5014058;28;20290;-63
2022/05/24 03:58:34;;;;;;;21.23;2.97;;;13.10;99.90;;;;;;5014025;28;20220;-63
2022/05/24 04:01:01;;;;;;;3.90;1.73;;;13.10;99.90;;;;;;5013829;28;20221;-62
2022/05/24 04:03:28;;;;;;;2.60;1.07;;;13.00;99.90;;;;;;5013596;28;20651;-64
2022/05/24 04:05:55;;;;;;;2.13;1.80;;;13.00;99.90;;;;;;5013607;28;20197;-63
2022/05/24 04:08:26;;;;;;;0.90;0.90;;;13.00;99.90;;;;;;5013437;28;20236;-63
2022/05/24 04:11:01;;;;;;;3.27;1.50;;;13.00;99.90;;;;;;5013919;28;20227;-63
2022/05/24 04:13:28;;;;;;;0.73;0.73;;;13.00;99.90;;;;;;5013729;28;20200;-63
2022/05/24 04:15:55;;;;;;;1.00;1.00;;;13.00;99.90;;;;;;5013420;28;20200;-63
2022/05/24 04:18:22;;;;;;;0.40;0.40;;;13.00;99.90;;;;;;5013695;28;20204;-63
2022/05/24 04:20:49;;;;;;;1.00;0.97;;;13.00;99.90;;;;;;5013517;28;20211;-63
2022/05/24 04:23:19;;;;;;;2.93;0.90;;;13.00;99.90;;;;;;5013572;28;20207;-63
2022/05/24 04:25:46;;;;;;;0.87;0.73;;;13.00;99.90;;;;;;5013616;28;20201;-63
2022/05/24 04:28:18;;;;;;;4.67;1.50;;;13.00;99.90;;;;;;5013547;28;20298;-63
2022/05/24 04:30:46;;;;;;;3.30;1.33;;;12.90;99.90;;;;;;5013970;28;20189;-64
2022/05/24 04:33:13;;;;;;;1.83;1.10;;;12.90;99.90;;;;;;5014591;28;20204;-63
2022/05/24 04:35:40;;;;;;;0.87;0.73;;;13.00;99.90;;;;;;5013120;28;20204;-63
2022/05/24 04:38:08;;;;;;;13.83;1.43;;;13.00;99.90;;;;;;5013059;28;20208;-63
2022/05/24 04:43:21;;;;;;;0.47;0.47;;;13.00;99.90;;;;;;5013190;28;20189;-63
2022/05/24 04:45:53;;;;;;;2.97;1.27;;;13.00;99.90;;;;;;5013139;28;20205;-62
2022/05/24 04:48:20;;;;;;;2.03;1.33;;;12.90;99.90;;;;;;5012939;28;20185;-63
2022/05/24 04:50:48;;;;;;;3.70;1.67;;;12.80;99.90;;;;;;5013442;28;20200;-63
2022/05/24 04:53:15;;;;;;;0.83;0.70;;;12.80;99.90;;;;;;5012280;28;20231;-63
2022/05/24 04:55:43;;;;;;;2.30;1.53;;;12.80;99.90;;;;;;5013078;28;20208;-63
2022/05/24 04:58:11;;;;;;;2.20;1.27;;;12.70;99.90;;;;;;5012680;28;20208;-62
2022/05/24 05:00:39;;;;;;;1.10;1.00;;;12.70;99.90;;;;;;5013117;28;20208;-63
2022/05/24 05:03:08;;;;;;;9.63;1.93;;;12.70;99.90;;;;;;5012560;28;20219;-62
2022/05/24 05:05:36;;;;;;;1.70;1.33;;;12.70;99.90;;;;;;5012431;28;20676;-62
2022/05/24 05:08:04;;;;;;;2.00;1.07;;;12.60;99.90;;;;;;5012494;28;20244;-62
2022/05/24 05:10:33;;;;;;;0.97;0.50;;;12.70;99.90;;;;;;5012943;28;20224;-62
2022/05/24 05:13:00;;;;;;;3.43;0.97;;;12.70;99.90;;;;;;5012871;28;20228;-64
2022/05/24 05:15:27;;;;;;;1.40;1.07;;;12.70;99.90;;;;;;5012911;28;20208;-63
2022/05/24 05:18:03;;;;;;;2.00;1.33;;;12.70;99.90;;;;;;5012898;28;20204;-63
2022/05/24 05:20:30;;;;;;;2.53;1.97;;;12.70;99.90;;;;;;5012895;28;20239;-63
2022/05/24 05:22:57;;;;;;;1.53;0.80;;;12.70;99.90;;;;;;5012952;28;20232;-63
2022/05/24 05:25:25;;;;;;;1.43;0.67;;;12.70;99.90;;;;;;5012810;28;20239;-63
2022/05/24 05:27:51;;;;;;;5.13;1.20;;;12.70;99.90;;;;;;5012753;28;20224;-63
2022/05/24 05:33:05;;;;;;;0.97;0.87;;;12.60;99.90;;;;;;5012662;28;20180;-63
2022/05/24 05:35:32;;;;;;;1.00;0.90;;;12.60;99.90;;;;;;5012436;28;20211;-63
2022/05/24 05:37:58;;;;;;;0.30;0.30;;;12.60;99.90;;;;;;5012302;28;20255;-63
2022/05/24 05:40:25;;;;;;;1.13;1.13;;;12.70;99.90;;;;;;5012275;28;20682;-63
2022/05/24 05:42:52;;;;;;;4.97;0.80;;;12.70;99.90;;;;;;5012443;28;20217;-62
2022/05/24 05:45:19;;;;;;;0.47;0.47;;;12.70;99.90;;;;;;5012601;28;20204;-63
2022/05/24 05:47:48;;;;;;;1.20;0.73;;;12.70;99.90;;;;;;5012589;28;20208;-64
2022/05/24 05:50:17;;;;;;;1.60;1.50;;;12.80;99.90;;;;;;5012699;28;20215;-63
2022/05/24 05:52:44;;;;;;;1.03;1.03;;;12.70;99.90;;;;;;5012257;28;20208;-63
2022/05/24 05:55:12;;;;;;;0.20;0.20;;;12.70;99.90;;;;;;5012518;28;20201;-64
2022/05/24 05:57:39;;;;;;;1.37;0.90;;;12.80;99.90;;;;;;5012443;28;20216;-64
2022/05/24 06:00:09;;;;;;;4.70;1.10;;;12.80;99.90;;;;;;5012162;28;20267;-62
2022/05/24 06:02:36;;;;;;;1.30;0.77;;;12.70;99.90;;;;;;5012961;28;20220;-63
2022/05/24 06:05:03;;;;;;;0.63;0.60;;;12.70;99.90;;;;;;5017153;28;20204;-62
2022/05/24 06:07:31;;;;;;;0.97;0.73;;;12.80;99.90;;;;;;5016105;28;20232;-63
2022/05/24 06:09:59;;;;;;;0.87;0.60;;;12.80;99.90;;;;;;5016136;28;20263;-63
2022/05/24 06:12:26;;;;;;;0.40;0.40;;;12.80;99.90;;;;;;5015904;28;20205;-63
2022/05/24 06:14:53;;;;;;;2.80;0.53;;;12.90;99.90;;;;;;5015619;28;20299;-62
2022/05/24 06:17:21;;;;;;;0.63;0.43;;;12.90;99.90;;;;;;5015565;28;20736;-63
2022/05/24 06:19:48;;;;;;;1.27;0.80;;;13.00;99.90;;;;;;5015857;28;20201;-63
2022/05/24 06:22:15;;;;;;;0.57;0.53;;;13.00;99.90;;;;;;5015719;28;20217;-63
2022/05/24 06:24:44;;;;;;;0.40;0.40;;;13.00;99.90;;;;;;5015510;28;20681;-63
2022/05/24 06:27:11;;;;;;;1.17;1.07;;;13.00;99.90;;;;;;5015683;28;20203;-63
2022/05/24 06:29:38;;;;;;;0.83;0.80;;;13.00;99.90;;;;;;5015703;28;20201;-62
2022/05/24 06:32:07;;;;;;;0.20;0.20;;;13.20;99.90;;;;;;5015332;28;20670;-64
2022/05/24 06:34:33;;;;;;;0.57;0.40;;;13.60;99.90;;;;;;5015473;28;20224;-63
2022/05/24 06:37:00;;;;;;;0.23;0.23;;;13.90;99.90;;;;;;5015543;28;20208;-63
2022/05/24 06:39:28;;;;;;;0.77;0.77;;;14.40;99.90;;;;;;5015175;28;20653;-63
2022/05/24 06:41:56;;;;;;;1.10;0.80;;;14.50;99.90;;;;;;5015419;28;20265;-63
2022/05/24 06:44:23;;;;;;;2.13;1.17;;;15.10;99.90;;;;;;5015466;28;20204;-63
2022/05/24 06:46:50;;;;;;;2.17;0.90;;;15.80;99.90;;;;;;5015441;28;20211;-63
2022/05/24 06:49:17;;;;;;;3.60;1.13;;;15.40;99.90;;;;;;5015425;28;20227;-64
2022/05/24 06:51:44;;;;;;;1.20;1.10;;;15.50;99.90;;;;;;5015401;28;20200;-64
2022/05/24 06:54:11;;;;;;;2.03;0.87;;;15.60;99.90;;;;;;5015264;28;20578;-64
2022/05/24 06:56:38;;;;;;;2.37;0.73;;;15.60;99.90;;;;;;5015167;28;20197;-64
2022/05/24 07:04:40;;;;;;;1.97;0.37;;;15.30;99.90;;;;;;4954286;29;20191;-63
2022/05/24 07:07:08;;;;;;;3.70;1.00;;;15.90;99.90;;;;;;4953958;28;20245;-63
2022/05/24 07:09:34;;;;;;;1.70;1.03;;;15.90;99.90;;;;;;4954265;29;20197;-63
2022/05/24 07:12:01;;;;;;;2.73;1.03;;;15.20;99.90;;;;;;4954042;29;20218;-63
2022/05/24 07:14:30;;;;;;;1.10;0.90;;;14.80;99.90;;;;;;4953666;28;20211;-63
2022/05/24 07:16:57;;;;;;;0.60;0.30;;;15.10;99.90;;;;;;4953519;29;20261;-63
2022/05/24 07:19:25;;;;;;;1.17;0.50;;;15.00;99.90;;;;;;4953939;29;20207;-63
2022/05/24 07:21:52;;;;;;;0.30;0.30;;;15.20;99.90;;;;;;4953792;29;20203;-62
2022/05/24 07:24:19;;;;;;;9.83;1.67;;;15.00;99.90;;;;;;4953905;29;20200;-63
2022/05/24 07:26:46;;;;;;;0.97;0.70;;;14.70;99.90;;;;;;4954065;29;20230;-63
2022/05/24 07:29:13;;;;;;;1.00;0.60;;;14.70;99.90;;;;;;4953994;29;20297;-63
2022/05/24 07:31:41;;;;;;;0.97;0.80;;;14.90;99.90;;;;;;4954208;29;20235;-64
2022/05/24 07:34:08;;;;;;;0.80;0.80;;;15.10;99.90;;;;;;4953868;29;20214;-63
2022/05/24 07:36:35;;;;;;;28.97;3.57;;;15.70;99.90;;;;;;4956300;29;20206;-64
2022/05/24 07:39:02;;;;;;;1.50;0.90;;;16.00;99.90;;;;;;4997225;28;20667;-63
2022/05/24 07:47:11;;;;;;;0.70;0.60;;;15.70;99.90;;;;;;4954545;29;20296;-63
2022/05/24 07:49:38;;;;;;;3.80;0.50;;;15.70;99.90;;;;;;4953618;29;20211;-63
2022/05/24 07:52:06;;;;;;;0.40;0.40;;;15.30;99.90;;;;;;4955845;29;20688;-64
2022/05/24 07:54:34;;;;;;;3.30;1.13;;;15.30;99.90;;;;;;4953388;29;20719;-63
2022/05/24 07:57:01;;;;;;;2.90;1.30;;;15.30;99.90;;;;;;4953591;29;20290;-64
2022/05/24 07:59:28;;;;;;;0.90;0.90;;;15.80;99.90;;;;;;4953514;29;20207;-63
2022/05/24 08:01:55;;;;;;;5.70;1.13;;;16.70;99.90;;;;;;4954725;29;20240;-63
2022/05/24 08:04:24;;;;;;;0.90;0.90;;;17.50;99.90;;;;;;4956284;29;20216;-64
2022/05/24 08:06:51;;;;;;;1.10;1.07;;;17.10;99.90;;;;;;4956033;28;20206;-63
2022/05/24 08:09:18;;;;;;;3.63;1.30;;;17.20;99.90;;;;;;4955313;29;20199;-67
2022/05/24 08:11:45;;;;;;;3.20;2.40;;;17.30;99.90;;;;;;4953498;29;20234;-64
2022/05/24 08:14:12;;;;;;;13.57;3.10;;;17.10;99.90;;;;;;4953139;29;20703;-63
2022/05/24 08:16:39;;;;;;;40.23;4.87;;;16.20;99.90;;;;;;4954244;29;20204;-64
2022/05/24 08:19:08;;;;;;;1.43;1.33;;;15.80;99.90;;;;;;4954479;29;20207;-64
2022/05/24 08:21:37;;;;;;;0.90;0.70;;;16.10;99.90;;;;;;4992197;28;20220;-64
2022/05/24 08:24:05;;;;;;;0.80;0.50;;;15.80;99.90;;;;;;5015539;28;20312;-63
2022/05/24 08:26:32;;;;;;;38.30;3.50;;;15.80;99.90;;;;;;5015722;28;20208;-69
2022/05/24 08:28:59;;;;;;;12.40;2.10;;;15.50;99.90;;;;;;5015770;28;20200;-63
2022/05/24 08:31:26;;;;;;;0.73;0.60;;;15.50;99.90;;;;;;5013344;28;20204;-63
2022/05/24 08:33:53;;;;;;;3.17;1.47;;;15.80;99.90;;;;;;5013440;28;20675;-63
2022/05/24 08:36:20;;;;;;;1.17;1.13;;;16.40;99.90;;;;;;4995208;28;20747;-64
2022/05/24 08:38:48;;;;;;;1.47;0.80;;;16.70;99.90;;;;;;4993834;28;20202;-63
2022/05/24 08:41:21;;;;;;;1.03;0.60;;;17.10;99.90;;;;;;4994061;28;20200;-64
2022/05/24 08:49:33;;;;;;;0.20;0.20;;;15.70;99.90;;;;;;4993519;28;20325;-64
2022/05/24 08:52:04;;;;;;;1.50;0.90;;;15.90;99.90;;;;;;4993405;28;20559;-63
2022/05/24 08:54:38;;;;;;;26.23;2.80;;;16.00;99.90;;;;;;4993320;28;20182;-63
2022/05/24 08:57:10;;;;;;;1.07;1.07;;;16.00;99.90;;;;;;4993225;28;20666;-64
2022/05/24 08:59:43;;;;;;;3.37;1.20;;;15.70;99.90;;;;;;4993551;28;20229;-64
2022/05/24 09:02:10;;;;;;;0.40;0.40;;;15.60;99.90;;;;;;4993384;28;20183;-63
2022/05/24 09:04:37;;;;;;;0.57;0.57;;;15.60;99.90;;;;;;4994277;28;20196;-64
2022/05/24 09:07:09;;;;;;;0.30;0.30;;;16.80;99.90;;;;;;4994103;28;20206;-65
2022/05/24 09:09:50;;;;;;;21.20;4.17;;;17.90;99.90;;;;;;4995837;28;20278;-65
2022/05/24 09:12:33;;;;;;;24.50;3.40;;;17.10;90.90;;;;;;4995071;28;20192;-65
2022/05/24 09:15:09;;;;;;;0.63;0.50;;;16.60;75.30;;;;;;4995689;28;20198;-64
2022/05/24 09:17:50;;;;;;;3.30;3.00;;;16.50;70.80;;;;;;4993731;28;20191;-64
2022/05/24 09:20:30;;;;;;;1.17;1.17;;;16.60;53.90;;;;;;4993280;28;20198;-64
2022/05/24 09:23:02;;;;;;;0.63;0.53;;;17.20;42.70;;;;;;4995298;28;20208;-64
2022/05/24 09:25:30;;;;;;;0.77;0.50;;;16.90;54.00;;;;;;4994919;28;20200;-64
2022/05/24 09:27:57;;;;;;;1.00;1.00;;;16.50;93.20;;;;;;4993841;28;20714;-64
2022/05/24 09:30:35;;;;;;;0.70;0.70;;;16.80;94.30;;;;;;4994641;28;20211;-64
2022/05/24 09:33:24;;;;;;;1.17;0.80;;;17.40;56.90;;;;;;4995039;28;20188;-64
2022/05/24 09:35:58;;;;;;;50.53;3.73;;;17.10;46.80;;;;;;4994377;28;20211;-64
2022/05/24 09:38:34;;;;;;;1.00;0.90;;;17.80;27.40;;;;;;4997916;28;20192;-67
2022/05/24 09:41:14;;;;;;;2.40;1.33;;;17.80;3.50;;;;;;5001534;28;20193;-67
2022/05/24 09:43:42;;;;;;;24.70;3.53;;;17.90;2.80;;;;;;4999334;28;20217;-66
2022/05/24 09:46:12;;;;;;;0.97;0.83;;;18.80;1.00;;;;;;4999652;28;20206;-64
2022/05/24 09:48:53;;;;;;;2.43;1.10;;;19.30;1.00;;;;;;4999286;28;20221;-64
2022/05/24 09:51:26;;;;;;;32.07;4.97;;;18.50;1.00;;;;;;4998811;28;20254;-64
2022/05/24 09:53:54;;;;;;;1.03;0.70;;;17.90;1.00;;;;;;4997870;28;20224;-64
2022/05/24 09:56:26;;;;;;;2.47;1.20;;;17.20;1.00;;;;;;4996970;28;20202;-64
2022/05/24 09:58:56;;;;;;;0.70;0.70;;;17.00;1.00;;;;;;4997020;28;20247;-63
2022/05/24 10:01:37;;;;;;;1.03;1.03;;;16.60;1.00;;;;;;4997045;28;20877;-63
2022/05/24 10:04:18;;;;;;;1.70;1.10;;;16.40;1.00;;;;;;4997418;28;20220;-63
2022/05/24 10:06:53;;;;;;;1.67;0.70;;;16.80;1.00;;;;;;4999113;28;20208;-64
2022/05/24 10:09:46;;;;;;;0.60;0.60;;;17.60;1.00;;;;;;4999853;28;20180;-64
2022/05/24 10:12:25;;;;;;;2.80;0.70;;;18.20;1.00;;;;;;4974124;28;20209;-64
2022/05/24 10:15:03;;;;;;;0.43;0.43;;;18.70;1.00;;;;;;4996786;28;20189;-64
2022/05/24 10:17:38;;;;;;;3.73;2.20;;;18.70;1.00;;;;;;4996815;28;20189;-64
2022/05/24 10:20:11;;;;;;;8.30;1.23;;;18.10;1.00;;;;;;4996412;28;20192;-63
2022/05/24 10:22:47;;;;;;;1.07;0.60;;;18.10;1.00;;;;;;4996305;28;20201;-62
2022/05/24 10:25:18;;;;;;;4.50;1.60;;;18.10;1.00;;;;;;4996234;28;20185;-63
2022/05/24 10:27:59;;;;;;;1.10;0.83;;;17.50;1.00;;;;;;4996321;28;20187;-63
2022/05/24 10:30:31;;;;;;;0.70;0.70;;;18.70;1.00;;;;;;4995829;28;20185;-63
2022/05/24 10:39:18;;;;;;;0.80;0.60;;;18.40;1.00;;;;;;4954073;28;20197;-63
2022/05/24 10:41:56;;;;;;;0.70;0.70;;;18.70;1.00;;;;;;4991141;28;20634;-63
2022/05/24 10:44:30;;;;;;;0.50;0.50;;;18.90;1.00;;;;;;4998328;28;20202;-62
2022/05/24 10:47:04;;;;;;;0.67;0.67;;;19.00;1.00;;;;;;4996337;28;20249;-62
2022/05/24 10:49:36;;;;;;;2.63;1.07;;;18.10;1.00;;;;;;4995554;28;20193;-62
2022/05/24 10:52:12;;;;;;;0.53;0.53;;;17.50;1.00;;;;;;4995542;28;20632;-61
2022/05/24 10:54:45;;;;;;;0.50;0.50;;;17.30;1.00;;;;;;4997274;28;20223;-62
2022/05/24 10:57:16;;;;;;;0.93;0.90;;;16.80;23.30;;;;;;4996635;28;20200;-62
2022/05/24 10:59:58;;;;;;;0.33;0.33;;;16.20;57.40;;;;;;4997275;28;20196;-62
2022/05/24 11:02:38;;;;;;;0.37;0.37;;;16.10;99.90;;;;;;4996848;28;20187;-62
2022/05/24 11:05:15;;;;;;;0.83;0.70;;;16.00;99.90;;;;;;4995235;28;20693;-62
2022/05/24 11:07:42;;;;;;;0.90;0.90;;;15.70;99.90;;;;;;4997736;28;20241;-69
2022/05/24 11:10:23;;;;;;;1.73;1.13;;;16.30;99.90;;;;;;4995973;28;20211;-63
2022/05/24 11:12:52;;;;;;;0.67;0.60;;;16.20;99.90;;;;;;4996809;28;20552;-63
2022/05/24 11:15:28;;;;;;;2.33;1.53;;;15.80;99.90;;;;;;4997190;28;20238;-63
2022/05/24 11:17:55;;;;;;;0.90;0.83;;;15.50;99.90;;;;;;4996266;28;20253;-63
2022/05/24 11:20:25;;;;;;;0.50;0.50;;;15.60;99.90;;;;;;4999545;28;20210;-63
2022/05/24 11:23:04;;;;;;;1.10;1.00;;;15.70;99.90;;;;;;4998268;28;20674;-66
2022/05/24 11:25:39;;;;;;;1.50;0.70;;;16.50;99.90;;;;;;4998517;28;20188;-64
2022/05/24 11:28:25;;;;;;;2.40;1.63;;;17.10;99.90;;;;;;4998943;28;20189;-63
2022/05/24 11:30:54;;;;;;;1.10;1.10;;;17.10;99.90;;;;;;4995223;28;20255;-63
2022/05/24 11:33:36;;;;;;;1.20;1.00;;;17.60;99.90;;;;;;4996038;28;20203;-63
2022/05/24 11:36:27;;;;;;;0.60;0.60;;;17.80;90.60;;;;;;4995483;28;20192;-64
2022/05/24 11:38:56;;;;;;;0.60;0.60;;;18.10;3.00;;;;;;4995977;28;20181;-64
2022/05/24 11:41:31;;;;;;;0.83;0.83;;;18.00;1.00;;;;;;4995113;28;20542;-64
2022/05/24 11:44:02;;;;;;;0.40;0.40;;;18.70;1.00;;;;;;4995268;28;20272;-64
2022/05/24 11:46:45;;;;;;;0.40;0.40;;;18.90;1.00;;;;;;4995197;28;20186;-64
2022/05/24 11:49:34;;;;;;;0.50;0.50;;;18.10;1.00;;;;;;4994663;28;20182;-64
2022/05/24 11:52:22;;;;;;;0.67;0.67;;;17.70;1.00;;;;;;4994709;28;20227;-64
2022/05/24 11:54:57;;;;;;;0.20;0.20;;;18.40;1.00;;;;;;4994906;28;20679;-65
2022/05/24 11:57:40;;;;;;;0.33;0.33;;;18.70;1.00;;;;;;4994265;28;20682;-64
2022/05/24 12:00:10;;;;;;;0.43;0.43;;;18.40;1.00;;;;;;4994442;28;20281;-63
2022/05/24 12:08:33;;;;;;;0.30;0.30;;;17.90;1.00;;;;;;4994047;28;20261;-63
2022/05/24 12:11:32;;;;;;;0.10;0.10;;;17.90;1.00;;;;;;4994202;28;20206;-63
2022/05/24 12:14:19;;;;;;;0.10;0.10;;;17.90;1.00;;;;;;4994176;28;20193;-64
2022/05/24 12:17:09;;;;;;;0.50;0.50;;;17.70;1.00;;;;;;4993974;28;20635;-64
2022/05/24 12:19:52;;;;;;;0.90;0.90;;;17.30;1.00;;;;;;4994409;28;20276;-65
2022/05/24 12:22:22;;;;;;;0.50;0.50;;;15.40;99.90;;;;;;4993995;28;20289;-66
2022/05/24 12:24:55;;;;;;;1.27;0.50;;;14.20;99.90;;;;;;4993713;28;20221;-64
2022/05/24 12:27:52;;;;;;;0.30;0.30;;;13.70;99.90;;;;;;4993664;28;20734;-64
2022/05/24 12:30:41;;;;;;;0.10;0.10;;;13.70;99.90;;;;;;4994007;28;20208;-66
2022/05/24 12:33:37;;;;;;;1.20;0.27;;;13.90;99.90;;;;;;4993739;28;20640;-65
2022/05/24 12:36:33;;;;;;;0.40;0.40;;;14.00;99.90;;;;;;4995907;28;20194;-65
2022/05/24 12:39:10;;;;;;;0.10;0.10;;;14.20;99.90;;;;;;4995303;28;20193;-64
2022/05/24 12:41:40;;;;;;;3.00;0.67;;;14.60;99.90;;;;;;4993814;28;20217;-64
2022/05/24 12:44:17;;;;;;;0.57;0.57;;;15.50;99.90;;;;;;4993651;28;20214;-64
2022/05/24 12:46:50;;;;;;;0.20;0.10;;;16.70;99.90;;;;;;4993651;28;20189;-64
2022/05/24 12:49:21;;;;;;;2.00;0.63;;;17.50;99.90;;;;;;4993598;28;20208;-64
2022/05/24 12:51:48;;;;;;;0.27;0.27;;;17.70;99.90;;;;;;4993098;28;20183;-64
2022/05/24 12:54:20;;;;;;;1.30;0.83;;;17.30;99.90;;;;;;4993523;28;20569;-65
2022/05/24 12:56:55;;;;;;;0.53;0.53;;;17.40;99.90;;;;;;4993405;28;20185;-64
2022/05/24 12:59:30;;;;;;;0.80;0.80;;;17.50;99.90;;;;;;4993462;28;20205;-64
2022/05/24 13:01:57;;;;;;;0.50;0.50;;;17.20;99.90;;;;;;4993436;28;20189;-64
2022/05/24 13:04:27;;;;;;;0.43;0.43;;;17.00;99.90;;;;;;4992923;28;20689;-63
2022/05/24 13:06:56;;;;;;;2.97;0.23;;;16.80;99.90;;;;;;4993223;28;20231;-62
2022/05/24 13:09:25;;;;;;;2.23;0.40;;;16.80;99.90;;;;;;4993277;28;20203;-63
2022/05/24 13:11:54;;;;;;;0.40;0.40;;;17.00;99.90;;;;;;4993317;28;20208;-63
2022/05/24 13:14:48;;;;;;;0.60;0.60;;;17.00;99.90;;;;;;4992472;28;20219;-63
2022/05/24 13:17:18;;;;;;;0.20;0.20;;;17.30;99.90;;;;;;4993339;28;20192;-63
2022/05/24 13:19:51;;;;;;;0.20;0.20;;;17.90;99.90;;;;;;4993042;28;20184;-63
2022/05/24 13:22:20;;;;;;;0.30;0.30;;;18.30;87.10;;;;;;4993126;28;20229;-64
2022/05/24 13:24:57;;;;;;;0.57;0.50;;;18.80;21.80;;;;;;4993209;28;20225;-64
2022/05/24 13:27:25;;;;;;;0.63;0.60;;;18.70;1.00;;;;;;4992786;28;20662;-64
2022/05/24 13:35:28;;;;;;;0.90;0.90;;;18.80;1.00;;;;;;4993108;28;20189;-64
2022/05/24 13:37:58;;;;;;;7.30;1.23;;;18.70;1.00;;;;;;4992826;28;20663;-64
2022/05/24 13:40:40;;;;;;;0.50;0.50;;;18.50;1.00;;;;;;4993118;28;20224;-64
2022/05/24 13:43:08;;;;;;;0.40;0.40;;;18.20;1.00;;;;;;4992652;28;20706;-63
2022/05/24 13:45:38;;;;;;;4.27;1.77;;;18.10;1.00;;;;;;4992937;28;20574;-63
2022/05/24 13:48:24;;;;;;;40.37;7.30;;;17.50;1.00;;;;;;4992627;28;20186;-63
2022/05/24 13:50:52;;;;;;;2.10;1.60;;;17.20;1.00;;;;;;4992428;28;20635;-63
2022/05/24 13:53:31;;;;;;;1.10;0.37;;;17.00;2.20;;;;;;4998098;28;20201;-63